Terminal Aerodrome Forecast
Issued by NWS

Home | Current Version | Previous Version | Text Only | Print | Product List | Glossary On
Versions: 1 2 3 4 5 6 7 8 9 10 11 12 13 14
000
FTUS42 KTBW 012334
TAFPIE
TAF
KPIE 012334Z 0200/0224 29006KT P6SM BKN250
     FM020200 VRB03KT P6SM FEW150 SCT250
     FM021500 12005KT P6SM FEW030 SCT150 SCT250
     FM021800 27008KT P6SM VCTS SCT040CB SCT250=

USA.gov is the U.S. government's official web portal to all federal, state and local government web resources and services.